sensor_id;sensor_type;location;lat;lon;timestamp;pressure;altitude;pressure_sealevel;temperature;humidity
3122;BME280;1571;52.524;14.104;2023-04-08T00:01:52;101685.19;;;4.49;100.00
3122;BME280;1571;52.524;14.104;2023-04-08T00:04:20;101692.84;;;4.59;100.00
3122;BME280;1571;52.524;14.104;2023-04-08T00:06:50;101693.91;;;4.51;100.00
3122;BME280;1571;52.524;14.104;2023-04-08T00:09:19;101689.00;;;4.35;100.00
3122;BME280;1571;52.524;14.104;2023-04-08T00:11:47;101694.97;;;4.42;100.00
3122;BME280;1571;52.524;14.104;2023-04-08T00:14:15;101697.28;;;4.57;100.00
3122;BME280;1571;52.524;14.104;2023-04-08T00:16:44;101693.63;;;4.63;100.00
3122;BME280;1571;52.524;14.104;2023-04-08T00:19:12;101691.91;;;4.62;100.00
3122;BME280;1571;52.524;14.104;2023-04-08T00:21:41;101693.72;;;4.58;100.00
3122;BME280;1571;52.524;14.104;2023-04-08T00:24:10;101707.50;;;4.71;100.00
3122;BME280;1571;52.524;14.104;2023-04-08T00:26:38;101701.59;;;4.60;100.00
3122;BME280;1571;52.524;14.104;2023-04-08T00:29:07;101705.06;;;4.62;100.00
3122;BME280;1571;52.524;14.104;2023-04-08T00:31:35;101705.91;;;4.64;100.00
3122;BME280;1571;52.524;14.104;2023-04-08T00:34:04;101707.91;;;4.53;100.00
3122;BME280;1571;52.524;14.104;2023-04-08T00:36:32;101706.03;;;4.58;100.00
3122;BME280;1571;52.524;14.104;2023-04-08T00:39:02;101716.00;;;4.44;100.00
3122;BME280;1571;52.524;14.104;2023-04-08T00:41:34;101718.41;;;4.53;100.00
3122;BME280;1571;52.524;14.104;2023-04-08T00:44:02;101711.22;;;4.61;100.00
3122;BME280;1571;52.524;14.104;2023-04-08T00:46:36;101716.53;;;4.58;100.00
3122;BME280;1571;52.524;14.104;2023-04-08T00:49:05;101714.66;;;4.63;100.00
3122;BME280;1571;52.524;14.104;2023-04-08T00:51:34;101719.19;;;4.58;100.00
3122;BME280;1571;52.524;14.104;2023-04-08T00:54:03;101713.94;;;4.56;100.00
3122;BME280;1571;52.524;14.104;2023-04-08T00:56:33;101723.63;;;4.54;100.00
3122;BME280;1571;52.524;14.104;2023-04-08T00:59:02;101727.16;;;4.55;100.00
3122;BME280;1571;52.524;14.104;2023-04-08T01:01:35;101736.09;;;4.46;100.00
3122;BME280;1571;52.524;14.104;2023-04-08T01:04:08;101736.03;;;4.48;100.00
3122;BME280;1571;52.524;14.104;2023-04-08T01:06:47;101726.41;;;4.48;100.00
3122;BME280;1571;52.524;14.104;2023-04-08T01:09:18;101732.56;;;4.46;100.00
3122;BME280;1571;52.524;14.104;2023-04-08T01:11:50;101720.25;;;4.48;100.00
3122;BME280;1571;52.524;14.104;2023-04-08T01:14:20;101732.44;;;4.52;100.00
3122;BME280;1571;52.524;14.104;2023-04-08T01:16:53;101735.91;;;4.54;100.00
3122;BME280;1571;52.524;14.104;2023-04-08T01:19:28;101736.03;;;4.48;100.00
3122;BME280;1571;52.524;14.104;2023-04-08T01:22:04;101735.06;;;4.53;100.00
3122;BME280;1571;52.524;14.104;2023-04-08T01:24:38;101743.03;;;4.50;100.00
3122;BME280;1571;52.524;14.104;2023-04-08T01:27:10;101752.72;;;4.48;100.00
3122;BME280;1571;52.524;14.104;2023-04-08T01:29:40;101755.09;;;4.59;100.00
3122;BME280;1571;52.524;14.104;2023-04-08T01:32:11;101761.25;;;4.58;100.00
3122;BME280;1571;52.524;14.104;2023-04-08T01:34:40;101759.75;;;4.46;100.00
3122;BME280;1571;52.524;14.104;2023-04-08T01:37:10;101757.97;;;4.48;100.00
3122;BME280;1571;52.524;14.104;2023-04-08T01:39:40;101772.66;;;4.57;100.00
3122;BME280;1571;52.524;14.104;2023-04-08T01:42:10;101762.34;;;4.48;100.00
3122;BME280;1571;52.524;14.104;2023-04-08T01:44:40;101778.06;;;4.51;100.00
3122;BME280;1571;52.524;14.104;2023-04-08T01:47:10;101775.38;;;4.52;100.00
3122;BME280;1571;52.524;14.104;2023-04-08T01:49:40;101780.09;;;4.36;100.00
3122;BME280;1571;52.524;14.104;2023-04-08T01:52:10;101774.72;;;4.43;100.00
3122;BME280;1571;52.524;14.104;2023-04-08T01:54:39;101793.03;;;4.47;100.00
3122;BME280;1571;52.524;14.104;2023-04-08T01:57:13;101786.16;;;4.42;100.00
3122;BME280;1571;52.524;14.104;2023-04-08T01:59:47;101792.19;;;4.45;100.00
3122;BME280;1571;52.524;14.104;2023-04-08T02:02:16;101792.16;;;4.47;100.00
3122;BME280;1571;52.524;14.104;2023-04-08T02:04:47;101795.38;;;4.61;100.00
3122;BME280;1571;52.524;14.104;2023-04-08T02:07:16;101790.94;;;4.63;100.00
3122;BME280;1571;52.524;14.104;2023-04-08T02:09:45;101794.81;;;4.47;100.00
3122;BME280;1571;52.524;14.104;2023-04-08T02:12:15;101786.72;;;4.56;100.00
3122;BME280;1571;52.524;14.104;2023-04-08T02:14:43;101797.31;;;4.53;100.00
3122;BME280;1571;52.524;14.104;2023-04-08T02:17:13;101795.31;;;4.64;100.00
3122;BME280;1571;52.524;14.104;2023-04-08T02:19:49;101788.41;;;4.60;100.00
3122;BME280;1571;52.524;14.104;2023-04-08T02:22:25;101788.50;;;4.54;100.00
3122;BME280;1571;52.524;14.104;2023-04-08T02:24:57;101789.38;;;4.54;100.00
3122;BME280;1571;52.524;14.104;2023-04-08T02:27:28;101792.09;;;4.50;100.00
3122;BME280;1571;52.524;14.104;2023-04-08T02:29:57;101797.91;;;4.66;100.00
3122;BME280;1571;52.524;14.104;2023-04-08T02:32:28;101797.03;;;4.65;100.00
3122;BME280;1571;52.524;14.104;2023-04-08T02:34:58;101809.47;;;4.57;100.00
3122;BME280;1571;52.524;14.104;2023-04-08T02:37:27;101807.63;;;4.62;100.00
3122;BME280;1571;52.524;14.104;2023-04-08T02:39:55;101816.56;;;4.55;100.00
3122;BME280;1571;52.524;14.104;2023-04-08T02:42:23;101817.22;;;4.65;100.00
3122;BME280;1571;52.524;14.104;2023-04-08T02:44:53;101815.56;;;4.59;100.00
3122;BME280;1571;52.524;14.104;2023-04-08T02:47:22;101820.72;;;4.65;100.00
3122;BME280;1571;52.524;14.104;2023-04-08T02:49:51;101827.00;;;4.58;100.00
3122;BME280;1571;52.524;14.104;2023-04-08T02:52:21;101830.50;;;4.57;100.00
3122;BME280;1571;52.524;14.104;2023-04-08T02:54:49;101828.78;;;4.57;100.00
3122;BME280;1571;52.524;14.104;2023-04-08T02:57:17;101835.53;;;4.69;100.00
3122;BME280;1571;52.524;14.104;2023-04-08T02:59:45;101828.53;;;4.68;100.00
3122;BME280;1571;52.524;14.104;2023-04-08T03:02:15;101830.47;;;4.62;100.00
3122;BME280;1571;52.524;14.104;2023-04-08T03:04:43;101833.22;;;4.54;100.00
3122;BME280;1571;52.524;14.104;2023-04-08T03:07:11;101837.63;;;4.52;100.00
3122;BME280;1571;52.524;14.104;2023-04-08T03:09:40;101835.75;;;4.60;100.00
3122;BME280;1571;52.524;14.104;2023-04-08T03:12:08;101838.38;;;4.60;100.00
3122;BME280;1571;52.524;14.104;2023-04-08T03:14:36;101846.25;;;4.60;100.00
3122;BME280;1571;52.524;14.104;2023-04-08T03:17:05;101851.50;;;4.60;100.00
3122;BME280;1571;52.524;14.104;2023-04-08T03:19:34;101853.97;;;4.69;100.00
3122;BME280;1571;52.524;14.104;2023-04-08T03:22:02;101851.56;;;4.57;100.00
3122;BME280;1571;52.524;14.104;2023-04-08T03:24:31;101854.94;;;4.64;100.00
3122;BME280;1571;52.524;14.104;2023-04-08T03:26:59;101859.19;;;4.71;100.00
3122;BME280;1571;52.524;14.104;2023-04-08T03:29:27;101859.31;;;4.65;100.00
3122;BME280;1571;52.524;14.104;2023-04-08T03:31:55;101860.00;;;4.74;100.00
3122;BME280;1571;52.524;14.104;2023-04-08T03:34:24;101860.06;;;4.71;100.00
3122;BME280;1571;52.524;14.104;2023-04-08T03:36:53;101858.28;;;4.73;100.00
3122;BME280;1571;52.524;14.104;2023-04-08T03:39:21;101858.31;;;4.70;100.00
3122;BME280;1571;52.524;14.104;2023-04-08T03:41:50;101860.25;;;4.62;100.00
3122;BME280;1571;52.524;14.104;2023-04-08T03:44:18;101853.88;;;4.74;100.00
3122;BME280;1571;52.524;14.104;2023-04-08T03:46:46;101857.34;;;4.74;100.00
3122;BME280;1571;52.524;14.104;2023-04-08T03:49:14;101856.78;;;4.60;100.00
3122;BME280;1571;52.524;14.104;2023-04-08T03:51:42;101865.44;;;4.65;100.00
3122;BME280;1571;52.524;14.104;2023-04-08T03:54:12;101866.47;;;4.56;100.00
3122;BME280;1571;52.524;14.104;2023-04-08T03:56:40;101865.53;;;4.59;100.00
3122;BME280;1571;52.524;14.104;2023-04-08T03:59:08;101882.03;;;4.69;100.00
3122;BME280;1571;52.524;14.104;2023-04-08T04:01:37;101884.56;;;4.73;100.00
3122;BME280;1571;52.524;14.104;2023-04-08T04:04:07;101883.94;;;4.61;100.00
3122;BME280;1571;52.524;14.104;2023-04-08T04:06:36;101887.47;;;4.59;100.00
3122;BME280;1571;52.524;14.104;2023-04-08T04:09:05;101890.03;;;4.64;100.00
3122;BME280;1571;52.524;14.104;2023-04-08T04:11:34;101895.28;;;4.64;100.00
3122;BME280;1571;52.524;14.104;2023-04-08T04:14:02;101896.88;;;4.71;100.00
3122;BME280;1571;52.524;14.104;2023-04-08T04:16:31;101908.09;;;4.81;100.00
3122;BME280;1571;52.524;14.104;2023-04-08T04:18:59;101908.34;;;4.69;100.00
3122;BME280;1571;52.524;14.104;2023-04-08T04:21:28;101895.13;;;4.70;100.00
3122;BME280;1571;52.524;14.104;2023-04-08T04:23:56;101916.81;;;4.85;100.00
3122;BME280;1571;52.524;14.104;2023-04-08T04:26:24;101915.97;;;4.83;100.00
3122;BME280;1571;52.524;14.104;2023-04-08T04:28:54;101916.00;;;4.79;100.00
3122;BME280;1571;52.524;14.104;2023-04-08T04:31:23;101913.31;;;4.84;100.00
3122;BME280;1571;52.524;14.104;2023-04-08T04:33:52;101923.13;;;4.74;100.00
3122;BME280;1571;52.524;14.104;2023-04-08T04:36:21;101912.84;;;4.62;100.00
3122;BME280;1571;52.524;14.104;2023-04-08T04:38:50;101922.84;;;4.90;100.00
3122;BME280;1571;52.524;14.104;2023-04-08T04:41:18;101923.88;;;4.81;100.00
3122;BME280;1571;52.524;14.104;2023-04-08T04:43:47;101921.34;;;4.76;100.00
3122;BME280;1571;52.524;14.104;2023-04-08T04:46:17;101922.34;;;4.71;100.00
3122;BME280;1571;52.524;14.104;2023-04-08T04:48:46;101929.09;;;4.84;100.00
3122;BME280;1571;52.524;14.104;2023-04-08T04:51:14;101930.22;;;4.71;100.00
3122;BME280;1571;52.524;14.104;2023-04-08T04:53:42;101926.53;;;4.79;100.00
3122;BME280;1571;52.524;14.104;2023-04-08T04:56:11;101936.38;;;4.70;100.00
3122;BME280;1571;52.524;14.104;2023-04-08T04:58:39;101939.66;;;4.81;100.00
3122;BME280;1571;52.524;14.104;2023-04-08T05:01:08;101933.66;;;4.74;100.00
3122;BME280;1571;52.524;14.104;2023-04-08T05:03:37;101937.22;;;4.70;100.00
3122;BME280;1571;52.524;14.104;2023-04-08T05:06:05;101944.16;;;4.74;100.00
3122;BME280;1571;52.524;14.104;2023-04-08T05:08:34;101950.38;;;4.72;100.00
3122;BME280;1571;52.524;14.104;2023-04-08T05:11:03;101950.34;;;4.73;100.00
3122;BME280;1571;52.524;14.104;2023-04-08T05:13:31;101938.16;;;4.68;100.00
3122;BME280;1571;52.524;14.104;2023-04-08T05:15:59;101952.81;;;4.83;100.00
3122;BME280;1571;52.524;14.104;2023-04-08T05:18:28;101952.94;;;4.75;100.00
3122;BME280;1571;52.524;14.104;2023-04-08T05:20:57;101959.09;;;4.74;100.00
3122;BME280;1571;52.524;14.104;2023-04-08T05:23:25;101965.00;;;4.87;100.00
3122;BME280;1571;52.524;14.104;2023-04-08T05:25:53;101965.00;;;4.87;100.00
3122;BME280;1571;52.524;14.104;2023-04-08T05:28:22;101970.38;;;4.80;100.00
3122;BME280;1571;52.524;14.104;2023-04-08T05:30:51;101970.59;;;4.68;100.00
3122;BME280;1571;52.524;14.104;2023-04-08T05:33:20;101969.78;;;4.66;100.00
3122;BME280;1571;52.524;14.104;2023-04-08T05:35:48;101984.22;;;4.90;100.00
3122;BME280;1571;52.524;14.104;2023-04-08T05:38:18;101989.53;;;4.89;100.00
3122;BME280;1571;52.524;14.104;2023-04-08T05:40:46;101998.13;;;4.97;100.00
3122;BME280;1571;52.524;14.104;2023-04-08T05:43:15;102000.81;;;4.94;100.00
3122;BME280;1571;52.524;14.104;2023-04-08T05:45:43;101996.34;;;4.99;100.00
3122;BME280;1571;52.524;14.104;2023-04-08T05:48:12;101991.28;;;4.88;100.00
3122;BME280;1571;52.524;14.104;2023-04-08T05:50:40;101992.94;;;4.94;100.00
3122;BME280;1571;52.524;14.104;2023-04-08T05:53:09;101990.13;;;5.03;100.00
3122;BME280;1571;52.524;14.104;2023-04-08T05:55:38;101992.66;;;5.08;100.00
3122;BME280;1571;52.524;14.104;2023-04-08T05:58:07;101993.63;;;5.04;100.00
3122;BME280;1571;52.524;14.104;2023-04-08T06:00:35;101990.88;;;5.08;100.00
3122;BME280;1571;52.524;14.104;2023-04-08T06:03:03;101993.50;;;5.10;100.00
3122;BME280;1571;52.524;14.104;2023-04-08T06:05:32;101987.50;;;5.03;100.00
3122;BME280;1571;52.524;14.104;2023-04-08T06:08:00;101999.50;;;5.16;100.00
3122;BME280;1571;52.524;14.104;2023-04-08T06:10:29;101994.28;;;5.13;100.00
3122;BME280;1571;52.524;14.104;2023-04-08T06:12:58;101997.00;;;5.09;100.00
3122;BME280;1571;52.524;14.104;2023-04-08T06:15:27;101992.09;;;4.92;100.00
3122;BME280;1571;52.524;14.104;2023-04-08T06:17:55;102005.06;;;5.01;100.00
3122;BME280;1571;52.524;14.104;2023-04-08T06:20:23;102001.28;;;5.16;100.00
3122;BME280;1571;52.524;14.104;2023-04-08T06:22:52;102013.47;;;5.20;100.00
3122;BME280;1571;52.524;14.104;2023-04-08T06:25:20;102010.13;;;5.12;100.00
3122;BME280;1571;52.524;14.104;2023-04-08T06:27:49;102003.31;;;5.01;100.00
3122;BME280;1571;52.524;14.104;2023-04-08T06:30:18;102021.41;;;5.18;100.00
3122;BME280;1571;52.524;14.104;2023-04-08T06:32:49;102015.41;;;5.10;100.00
3122;BME280;1571;52.524;14.104;2023-04-08T06:35:17;102014.16;;;5.30;100.00
3122;BME280;1571;52.524;14.104;2023-04-08T06:37:45;102020.50;;;5.19;100.00
3122;BME280;1571;52.524;14.104;2023-04-08T06:40:13;102024.28;;;5.06;100.00
3122;BME280;1571;52.524;14.104;2023-04-08T06:42:42;102031.84;;;5.25;100.00
3122;BME280;1571;52.524;14.104;2023-04-08T06:45:27;102032.53;;;5.33;100.00
3122;BME280;1571;52.524;14.104;2023-04-08T06:47:55;102031.00;;;5.22;100.00
3122;BME280;1571;52.524;14.104;2023-04-08T06:50:24;102034.31;;;5.31;100.00
3122;BME280;1571;52.524;14.104;2023-04-08T06:52:52;102040.44;;;5.31;100.00
3122;BME280;1571;52.524;14.104;2023-04-08T06:55:21;102048.28;;;5.36;100.00
3122;BME280;1571;52.524;14.104;2023-04-08T06:57:49;102049.91;;;5.43;100.00
3122;BME280;1571;52.524;14.104;2023-04-08T07:00:17;102038.34;;;5.49;100.00
3122;BME280;1571;52.524;14.104;2023-04-08T07:02:47;102034.84;;;5.48;100.00
3122;BME280;1571;52.524;14.104;2023-04-08T07:05:15;102041.50;;;5.68;100.00
3122;BME280;1571;52.524;14.104;2023-04-08T07:07:44;102037.19;;;5.63;100.00
3122;BME280;1571;52.524;14.104;2023-04-08T07:10:12;102035.84;;;5.42;100.00
3122;BME280;1571;52.524;14.104;2023-04-08T07:12:40;102046.16;;;5.53;100.00
3122;BME280;1571;52.524;14.104;2023-04-08T07:15:09;102042.19;;;5.76;100.00
3122;BME280;1571;52.524;14.104;2023-04-08T07:17:37;102048.28;;;5.78;100.00
3122;BME280;1571;52.524;14.104;2023-04-08T07:20:09;102043.97;;;5.74;100.00
3122;BME280;1571;52.524;14.104;2023-04-08T07:22:38;102042.38;;;5.67;100.00
3122;BME280;1571;52.524;14.104;2023-04-08T07:25:06;102048.41;;;5.72;100.00
3122;BME280;1571;52.524;14.104;2023-04-08T07:27:35;102043.50;;;5.55;100.00
3122;BME280;1571;52.524;14.104;2023-04-08T07:30:04;102042.34;;;5.70;100.00
3122;BME280;1571;52.524;14.104;2023-04-08T07:32:33;102038.44;;;5.86;100.00
3122;BME280;1571;52.524;14.104;2023-04-08T07:35:03;102034.97;;;5.84;100.00
3122;BME280;1571;52.524;14.104;2023-04-08T07:37:32;102029.53;;;5.92;100.00
3122;BME280;1571;52.524;14.104;2023-04-08T07:40:01;102039.69;;;6.10;100.00
3122;BME280;1571;52.524;14.104;2023-04-08T07:42:29;102026.41;;;6.15;100.00
3122;BME280;1571;52.524;14.104;2023-04-08T07:44:58;102021.38;;;6.04;100.00
3122;BME280;1571;52.524;14.104;2023-04-08T07:47:26;102029.28;;;6.04;100.00
3122;BME280;1571;52.524;14.104;2023-04-08T07:49:54;102033.44;;;6.52;100.00
3122;BME280;1571;52.524;14.104;2023-04-08T07:52:22;102029.50;;;6.32;100.00
3122;BME280;1571;52.524;14.104;2023-04-08T07:54:52;102023.94;;;6.44;100.00
3122;BME280;1571;52.524;14.104;2023-04-08T07:57:21;102024.06;;;6.40;100.00
3122;BME280;1571;52.524;14.104;2023-04-08T07:59:50;102009.31;;;6.31;100.00
3122;BME280;1571;52.524;14.104;2023-04-08T08:02:18;102013.03;;;6.58;100.00
3122;BME280;1571;52.524;14.104;2023-04-08T08:04:46;102007.53;;;6.32;100.00
3122;BME280;1571;52.524;14.104;2023-04-08T08:07:14;102008.06;;;6.46;100.00
3122;BME280;1571;52.524;14.104;2023-04-08T08:09:43;101999.13;;;6.84;100.00
3122;BME280;1571;52.524;14.104;2023-04-08T08:12:12;102004.91;;;6.66;100.00
3122;BME280;1571;52.524;14.104;2023-04-08T08:14:40;101994.59;;;6.57;100.00
3122;BME280;1571;52.524;14.104;2023-04-08T08:17:08;102002.56;;;6.55;100.00
3122;BME280;1571;52.524;14.104;2023-04-08T08:19:38;101993.06;;;6.82;100.00
3122;BME280;1571;52.524;14.104;2023-04-08T08:22:07;101987.91;;;6.78;100.00
3122;BME280;1571;52.524;14.104;2023-04-08T08:24:35;101984.09;;;6.88;100.00
3122;BME280;1571;52.524;14.104;2023-04-08T08:27:04;101978.78;;;6.90;100.00
3122;BME280;1571;52.524;14.104;2023-04-08T08:29:34;101970.59;;;6.66;100.00
3122;BME280;1571;52.524;14.104;2023-04-08T08:32:03;101972.28;;;6.68;100.00
3122;BME280;1571;52.524;14.104;2023-04-08T08:34:31;101983.78;;;6.66;100.00
3122;BME280;1571;52.524;14.104;2023-04-08T08:36:59;101971.69;;;6.92;100.00
3122;BME280;1571;52.524;14.104;2023-04-08T08:39:28;101969.78;;;6.97;100.00
3122;BME280;1571;52.524;14.104;2023-04-08T08:41:56;101971.13;;;6.80;100.00
3122;BME280;1571;52.524;14.104;2023-04-08T08:44:24;101967.56;;;6.81;100.00
3122;BME280;1571;52.524;14.104;2023-04-08T08:46:54;101979.50;;;6.95;100.00
3122;BME280;1571;52.524;14.104;2023-04-08T08:49:22;101973.31;;;6.96;100.00
3122;BME280;1571;52.524;14.104;2023-04-08T08:51:52;101977.19;;;7.15;100.00
3122;BME280;1571;52.524;14.104;2023-04-08T08:54:22;101976.75;;;7.30;100.00
3122;BME280;1571;52.524;14.104;2023-04-08T08:56:50;101974.19;;;7.57;100.00
3122;BME280;1571;52.524;14.104;2023-04-08T08:59:19;101963.91;;;7.48;100.00
3122;BME280;1571;52.524;14.104;2023-04-08T09:01:47;101960.59;;;7.69;100.00
3122;BME280;1571;52.524;14.104;2023-04-08T09:04:18;101956.06;;;7.75;100.00
3122;BME280;1571;52.524;14.104;2023-04-08T09:06:48;101946.72;;;7.91;100.00
3122;BME280;1571;52.524;14.104;2023-04-08T09:09:17;101934.41;;;7.90;100.00
3122;BME280;1571;52.524;14.104;2023-04-08T09:11:46;101936.66;;;8.02;100.00
3122;BME280;1571;52.524;14.104;2023-04-08T09:14:18;101932.50;;;7.95;100.00
3122;BME280;1571;52.524;14.104;2023-04-08T09:16:47;101924.03;;;7.84;100.00
3122;BME280;1571;52.524;14.104;2023-04-08T09:19:17;101911.22;;;7.98;100.00
3122;BME280;1571;52.524;14.104;2023-04-08T09:22:03;101904.63;;;8.11;100.00
3122;BME280;1571;52.524;14.104;2023-04-08T09:24:31;101897.38;;;8.43;100.00
3122;BME280;1571;52.524;14.104;2023-04-08T09:27:00;101897.81;;;8.56;100.00
3122;BME280;1571;52.524;14.104;2023-04-08T09:29:28;101884.75;;;8.51;100.00
3122;BME280;1571;52.524;14.104;2023-04-08T09:32:01;101879.38;;;8.53;100.00
3122;BME280;1571;52.524;14.104;2023-04-08T09:34:31;101889.28;;;8.48;100.00
3122;BME280;1571;52.524;14.104;2023-04-08T09:37:00;101878.69;;;8.48;100.00
3122;BME280;1571;52.524;14.104;2023-04-08T09:39:29;101868.47;;;8.62;100.00
3122;BME280;1571;52.524;14.104;2023-04-08T09:41:59;101885.50;;;8.55;100.00
3122;BME280;1571;52.524;14.104;2023-04-08T09:44:34;101882.50;;;8.39;99.81
3122;BME280;1571;52.524;14.104;2023-04-08T09:47:07;101889.63;;;8.62;99.47
3122;BME280;1571;52.524;14.104;2023-04-08T09:49:43;101887.56;;;8.47;98.52
3122;BME280;1571;52.524;14.104;2023-04-08T09:52:19;101888.63;;;8.66;97.95
3122;BME280;1571;52.524;14.104;2023-04-08T09:54:51;101899.81;;;8.74;97.80
3122;BME280;1571;52.524;14.104;2023-04-08T09:57:26;101896.88;;;8.57;96.01
3122;BME280;1571;52.524;14.104;2023-04-08T10:00:01;101899.41;;;8.85;95.67
3122;BME280;1571;52.524;14.104;2023-04-08T10:02:44;101889.00;;;9.04;94.78
3122;BME280;1571;52.524;14.104;2023-04-08T10:05:18;101894.97;;;8.86;94.61
3122;BME280;1571;52.524;14.104;2023-04-08T10:07:47;101897.41;;;8.92;93.25
3122;BME280;1571;52.524;14.104;2023-04-08T10:10:17;101897.91;;;8.78;92.66
3122;BME280;1571;52.524;14.104;2023-04-08T10:12:46;101903.09;;;8.81;93.00
3122;BME280;1571;52.524;14.104;2023-04-08T10:15:25;101895.16;;;8.81;92.48
3122;BME280;1571;52.524;14.104;2023-04-08T10:17:55;101900.44;;;8.81;92.43
3122;BME280;1571;52.524;14.104;2023-04-08T10:20:52;101904.72;;;8.85;91.67
3122;BME280;1571;52.524;14.104;2023-04-08T10:23:53;101904.13;;;8.77;90.65
3122;BME280;1571;52.524;14.104;2023-04-08T10:26:39;101901.63;;;9.21;90.42
3122;BME280;1571;52.524;14.104;2023-04-08T10:29:29;101905.47;;;9.12;89.05
3122;BME280;1571;52.524;14.104;2023-04-08T10:31:57;101904.47;;;8.91;87.79
3122;BME280;1571;52.524;14.104;2023-04-08T10:34:26;101905.66;;;9.08;87.27
3122;BME280;1571;52.524;14.104;2023-04-08T10:36:56;101904.22;;;9.45;87.49
3122;BME280;1571;52.524;14.104;2023-04-08T10:39:29;101900.13;;;9.59;87.57
3122;BME280;1571;52.524;14.104;2023-04-08T10:42:00;101906.47;;;9.55;86.76
3122;BME280;1571;52.524;14.104;2023-04-08T10:44:30;101905.44;;;9.36;86.35
3122;BME280;1571;52.524;14.104;2023-04-08T10:46:58;101908.16;;;9.34;85.63
3122;BME280;1571;52.524;14.104;2023-04-08T10:49:32;101918.53;;;9.17;85.44
3122;BME280;1571;52.524;14.104;2023-04-08T10:52:05;101918.31;;;9.23;85.09
3122;BME280;1571;52.524;14.104;2023-04-08T10:54:36;101919.91;;;9.51;84.81
3122;BME280;1571;52.524;14.104;2023-04-08T10:57:05;101913.94;;;9.22;83.56
3122;BME280;1571;52.524;14.104;2023-04-08T10:59:33;101925.38;;;9.23;83.81
3122;BME280;1571;52.524;14.104;2023-04-08T11:02:02;101919.53;;;9.14;83.70
3122;BME280;1571;52.524;14.104;2023-04-08T11:04:31;101918.53;;;9.17;84.01
3122;BME280;1571;52.524;14.104;2023-04-08T11:07:04;101908.75;;;9.41;83.06
3122;BME280;1571;52.524;14.104;2023-04-08T11:09:33;101918.38;;;9.22;83.47
3122;BME280;1571;52.524;14.104;2023-04-08T11:12:03;101926.59;;;9.37;83.34
3122;BME280;1571;52.524;14.104;2023-04-08T11:14:31;101918.66;;;9.82;84.46
3122;BME280;1571;52.524;14.104;2023-04-08T11:16:59;101913.56;;;10.19;81.77
3122;BME280;1571;52.524;14.104;2023-04-08T11:19:28;101912.22;;;10.09;80.23
3122;BME280;1571;52.524;14.104;2023-04-08T11:21:57;101912.69;;;10.41;79.29
3122;BME280;1571;52.524;14.104;2023-04-08T11:24:25;101911.25;;;10.12;79.41
3122;BME280;1571;52.524;14.104;2023-04-08T11:26:54;101924.97;;;10.21;79.28
3122;BME280;1571;52.524;14.104;2023-04-08T11:29:24;101911.22;;;10.34;78.03
3122;BME280;1571;52.524;14.104;2023-04-08T11:31:52;101913.69;;;10.16;77.73
3122;BME280;1571;52.524;14.104;2023-04-08T11:34:22;101916.41;;;10.15;77.81
3122;BME280;1571;52.524;14.104;2023-04-08T11:36:51;101924.16;;;10.41;77.85
3122;BME280;1571;52.524;14.104;2023-04-08T11:39:21;101920.06;;;10.55;77.59
3122;BME280;1571;52.524;14.104;2023-04-08T11:41:50;101918.44;;;10.30;77.18
3122;BME280;1571;52.524;14.104;2023-04-08T11:44:19;101919.31;;;10.51;77.10
3122;BME280;1571;52.524;14.104;2023-04-08T11:46:54;101921.59;;;10.60;77.94
3122;BME280;1571;52.524;14.104;2023-04-08T11:49:23;101926.81;;;10.41;77.02
3122;BME280;1571;52.524;14.104;2023-04-08T11:51:56;101913.97;;;10.92;76.33
3122;BME280;1571;52.524;14.104;2023-04-08T11:54:25;101914.41;;;11.59;75.02
3122;BME280;1571;52.524;14.104;2023-04-08T11:56:54;101901.50;;;11.32;73.85
3122;BME280;1571;52.524;14.104;2023-04-08T11:59:24;101911.28;;;11.51;74.50
3122;BME280;1571;52.524;14.104;2023-04-08T12:01:56;101909.94;;;11.59;72.97
3122;BME280;1571;52.524;14.104;2023-04-08T12:04:25;101906.53;;;11.57;72.12
3122;BME280;1571;52.524;14.104;2023-04-08T12:06:53;101904.38;;;11.83;71.12
3122;BME280;1571;52.524;14.104;2023-04-08T12:09:24;101909.69;;;11.09;71.53
3122;BME280;1571;52.524;14.104;2023-04-08T12:11:53;101915.44;;;11.18;72.22
3122;BME280;1571;52.524;14.104;2023-04-08T12:14:22;101911.63;;;11.24;71.96
3122;BME280;1571;52.524;14.104;2023-04-08T12:16:54;101930.84;;;10.91;73.39
3122;BME280;1571;52.524;14.104;2023-04-08T12:19:23;101927.72;;;11.21;73.39
3122;BME280;1571;52.524;14.104;2023-04-08T12:21:52;101926.97;;;11.74;72.71
3122;BME280;1571;52.524;14.104;2023-04-08T12:24:21;101923.59;;;11.90;72.45
3122;BME280;1571;52.524;14.104;2023-04-08T12:26:49;101935.84;;;11.37;72.54
3122;BME280;1571;52.524;14.104;2023-04-08T12:29:17;101940.34;;;11.16;73.25
3122;BME280;1571;52.524;14.104;2023-04-08T12:31:45;101947.41;;;11.17;72.82
3122;BME280;1571;52.524;14.104;2023-04-08T12:34:13;101935.75;;;10.80;71.74
3122;BME280;1571;52.524;14.104;2023-04-08T12:36:43;101935.75;;;10.80;72.44
3122;BME280;1571;52.524;14.104;2023-04-08T12:39:12;101932.00;;;10.86;72.66
3122;BME280;1571;52.524;14.104;2023-04-08T12:41:40;101924.25;;;11.19;71.85
3122;BME280;1571;52.524;14.104;2023-04-08T12:44:08;101939.53;;;10.95;72.30
3122;BME280;1571;52.524;14.104;2023-04-08T12:46:36;101933.91;;;11.21;71.30
3122;BME280;1571;52.524;14.104;2023-04-08T12:49:05;101934.75;;;10.82;71.58
3122;BME280;1571;52.524;14.104;2023-04-08T12:51:33;101942.03;;;10.58;72.16
3122;BME280;1571;52.524;14.104;2023-04-08T12:54:03;101935.88;;;10.97;72.55
3122;BME280;1571;52.524;14.104;2023-04-08T12:56:32;101934.28;;;11.33;72.53
3122;BME280;1571;52.524;14.104;2023-04-08T12:59:00;101928.81;;;11.17;70.47
3122;BME280;1571;52.524;14.104;2023-04-08T13:01:28;101930.53;;;11.18;71.32
3122;BME280;1571;52.524;14.104;2023-04-08T13:03:57;101924.63;;;11.30;71.26
3122;BME280;1571;52.524;14.104;2023-04-08T13:06:26;101923.19;;;11.23;70.75
3122;BME280;1571;52.524;14.104;2023-04-08T13:08:54;101925.56;;;11.29;70.30
3122;BME280;1571;52.524;14.104;2023-04-08T13:11:24;101924.47;;;11.14;70.78
3122;BME280;1571;52.524;14.104;2023-04-08T13:13:52;101931.47;;;10.96;70.74
3122;BME280;1571;52.524;14.104;2023-04-08T13:16:20;101921.13;;;11.11;69.97